Oss, Netherlands
Current Conditions -  °F | °C
As of 3:55 PM on Friday 28 Nov 2014 (Local Time) from EHVK Reporting Station
Haze Haze  
Wind Chill: 40°   Ceiling: 10000
Heat Index: 46°   Visibility: 4mi
Dew Point: 41°   Wind: 14mph
Humidity: 81%   Direction: 70°ENE
Pressure: 29.8"   Gusts: NA
Location:  51.77°N, 5.52°E
Report Text: EHVK 281455Z AUTO 07012KT 7000 BR SCT089 BKN100 08/05 Q1009 WHT
Loading
Personal Weather Stations






























Interactive Weather Map New forecast layout! Learn more

10-Day Weather Forecast

Advertisements
Track Severe Weather on mobile